Time;durP1;ratioP1;P1;durP2;ratioP2;P2;SDS_P1;SDS_P2;PMS_P1;PMS_P2;Temp;Humidity;BMP_temperature;BMP_pressure;BME280_temperature;BME280_humidity;BME280_pressure;Samples;Min_cycle;Max_cycle;Signal;HPM_P1;HPM_P2
2024/03/25 00:00:48;;;;;;;2.75;1.30;;;8.20;99.90;;;;;;10021321;28;20029;-66
2024/03/25 00:05:38;;;;;;;2.05;0.98;;;8.20;99.90;;;;;;10028294;28;20026;-66
2024/03/25 00:10:29;;;;;;;2.95;1.70;;;8.10;99.90;;;;;;10024580;28;20436;-68
2024/03/25 00:15:20;;;;;;;2.88;1.25;;;8.10;99.90;;;;;;10021608;28;20400;-66
2024/03/25 00:20:11;;;;;;;3.85;1.17;;;8.10;99.90;;;;;;10023059;28;20068;-66
2024/03/25 00:25:02;;;;;;;2.55;1.92;;;8.10;99.90;;;;;;10021426;28;20056;-67
2024/03/25 00:29:53;;;;;;;1.85;1.25;;;8.10;99.90;;;;;;10020129;28;20041;-66
2024/03/25 00:34:43;;;;;;;1.73;1.05;;;8.00;99.90;;;;;;10021137;28;20026;-67
2024/03/25 00:39:34;;;;;;;2.47;1.35;;;8.00;99.90;;;;;;10019827;28;20060;-66
2024/03/25 00:44:25;;;;;;;2.42;1.17;;;8.00;99.90;;;;;;10011984;28;20026;-66
2024/03/25 00:49:16;;;;;;;1.25;1.00;;;7.90;99.90;;;;;;10017699;28;20050;-66
2024/03/25 00:54:07;;;;;;;2.88;1.05;;;7.80;99.90;;;;;;10021719;28;20037;-66
2024/03/25 00:59:02;;;;;;;1.83;0.80;;;7.90;99.90;;;;;;10022063;28;20112;-67
2024/03/25 01:03:52;;;;;;;1.97;0.90;;;7.80;99.90;;;;;;10022426;28;20051;-66
2024/03/25 01:08:43;;;;;;;2.17;1.35;;;7.70;99.90;;;;;;10022027;28;20046;-66
2024/03/25 01:13:34;;;;;;;3.90;1.02;;;7.70;99.90;;;;;;10022320;28;20037;-66
2024/03/25 01:18:24;;;;;;;3.05;1.13;;;7.70;99.90;;;;;;10019217;28;20112;-67
2024/03/25 01:23:16;;;;;;;0.77;0.75;;;7.70;99.90;;;;;;10019383;28;20029;-66
2024/03/25 01:28:06;;;;;;;1.60;1.00;;;7.70;99.90;;;;;;10020861;28;20046;-66
2024/03/25 01:32:57;;;;;;;2.03;1.23;;;7.60;99.90;;;;;;10019231;28;20049;-67
2024/03/25 01:37:49;;;;;;;2.25;1.20;;;7.60;99.90;;;;;;10019287;28;20046;-65
2024/03/25 01:42:41;;;;;;;1.48;0.93;;;7.60;99.90;;;;;;10024391;28;20026;-66
2024/03/25 01:47:35;;;;;;;1.58;0.88;;;7.50;99.90;;;;;;10023942;28;20044;-67
2024/03/25 01:52:26;;;;;;;2.63;1.20;;;7.50;99.90;;;;;;10019260;28;20021;-67
2024/03/25 01:57:17;;;;;;;1.33;1.02;;;7.50;99.90;;;;;;10026336;28;20686;-67
2024/03/25 02:02:10;;;;;;;2.53;1.40;;;7.40;99.90;;;;;;10018367;28;20028;-67
2024/03/25 02:07:02;;;;;;;3.55;1.15;;;7.40;99.90;;;;;;10012791;28;20132;-67
2024/03/25 02:11:54;;;;;;;1.75;0.98;;;7.40;99.90;;;;;;10014016;28;20022;-66
2024/03/25 02:16:44;;;;;;;1.40;1.00;;;7.40;99.90;;;;;;10016839;28;20038;-66
2024/03/25 02:21:35;;;;;;;4.55;1.10;;;7.40;99.90;;;;;;10029101;28;20033;-66
2024/03/25 02:26:28;;;;;;;2.58;1.15;;;7.40;99.90;;;;;;10014098;28;20045;-66
2024/03/25 02:31:18;;;;;;;2.78;1.90;;;7.40;99.90;;;;;;10017746;28;20033;-66
2024/03/25 02:36:09;;;;;;;1.92;0.95;;;7.30;99.90;;;;;;10018108;28;20052;-65
2024/03/25 02:41:00;;;;;;;1.08;0.85;;;7.30;99.90;;;;;;10017598;28;20622;-65
2024/03/25 02:45:50;;;;;;;3.17;1.08;;;7.30;99.90;;;;;;10033935;28;20041;-66
2024/03/25 02:50:41;;;;;;;2.47;0.95;;;7.30;99.90;;;;;;10023950;28;20034;-66
2024/03/25 02:55:32;;;;;;;2.67;1.10;;;7.30;99.90;;;;;;10019413;28;20377;-66
2024/03/25 03:00:22;;;;;;;2.97;1.38;;;7.30;99.90;;;;;;10016825;28;20033;-66
2024/03/25 03:05:13;;;;;;;3.88;1.00;;;7.30;99.90;;;;;;10018989;28;20113;-67
2024/03/25 03:10:05;;;;;;;3.13;1.42;;;7.30;99.90;;;;;;10021237;28;20128;-67
2024/03/25 03:14:55;;;;;;;3.60;1.08;;;7.20;99.90;;;;;;10016333;28;20065;-66
2024/03/25 03:19:46;;;;;;;2.03;1.17;;;7.20;99.90;;;;;;10016074;28;20038;-66
2024/03/25 03:24:36;;;;;;;6.57;1.58;;;7.10;99.90;;;;;;10015600;28;20419;-66
2024/03/25 03:29:27;;;;;;;4.00;1.88;;;7.10;99.90;;;;;;10014909;28;20068;-66
2024/03/25 03:34:18;;;;;;;2.75;1.38;;;7.20;99.90;;;;;;10016240;28;20098;-66
2024/03/25 03:39:09;;;;;;;1.77;1.02;;;7.20;99.90;;;;;;10021732;28;20054;-66
2024/03/25 03:43:59;;;;;;;1.92;0.98;;;7.20;99.90;;;;;;10023328;28;20032;-66
2024/03/25 03:48:50;;;;;;;2.40;1.27;;;7.20;99.90;;;;;;10026568;28;20052;-66
2024/03/25 03:53:41;;;;;;;1.52;0.98;;;7.10;99.90;;;;;;10023518;28;20492;-66
2024/03/25 03:58:32;;;;;;;3.88;1.13;;;7.20;99.90;;;;;;10022919;28;20128;-66
2024/03/25 04:03:23;;;;;;;1.67;1.20;;;7.20;99.90;;;;;;10021323;28;20627;-66
2024/03/25 04:08:14;;;;;;;1.75;1.02;;;7.20;99.90;;;;;;10021216;28;20037;-66
2024/03/25 04:13:05;;;;;;;3.47;1.48;;;7.20;99.90;;;;;;10023973;28;20467;-66
2024/03/25 04:17:55;;;;;;;2.92;1.55;;;7.10;99.90;;;;;;10022604;28;20037;-66
2024/03/25 04:22:47;;;;;;;2.65;1.40;;;7.10;99.90;;;;;;10024709;28;20053;-65
2024/03/25 04:27:41;;;;;;;2.67;1.60;;;7.10;99.90;;;;;;10021456;28;20049;-66
2024/03/25 04:32:32;;;;;;;1.92;1.40;;;7.00;99.90;;;;;;10021317;28;20030;-66
2024/03/25 04:37:22;;;;;;;2.70;1.70;;;7.10;99.90;;;;;;10028370;28;20531;-66
2024/03/25 04:42:13;;;;;;;3.28;1.23;;;7.10;99.90;;;;;;10028370;28;20030;-66
2024/03/25 04:47:03;;;;;;;3.05;1.35;;;7.20;99.90;;;;;;10021002;28;20083;-66
2024/03/25 04:51:54;;;;;;;2.53;1.35;;;7.20;99.90;;;;;;10019697;28;20038;-66
2024/03/25 04:56:45;;;;;;;1.98;1.50;;;7.20;99.90;;;;;;10019542;28;20042;-66
2024/03/25 05:01:36;;;;;;;2.55;1.73;;;7.20;99.90;;;;;;10020533;28;20026;-67
2024/03/25 05:06:27;;;;;;;7.68;1.50;;;7.10;99.90;;;;;;10023075;28;20046;-66
2024/03/25 05:11:17;;;;;;;1.95;1.27;;;7.10;99.90;;;;;;10023771;28;20539;-66
2024/03/25 05:16:08;;;;;;;6.03;1.25;;;7.10;99.90;;;;;;10019979;28;20064;-66
2024/03/25 05:20:59;;;;;;;2.08;1.15;;;7.10;99.90;;;;;;10025732;28;20125;-66
2024/03/25 05:25:49;;;;;;;2.75;1.30;;;7.10;99.90;;;;;;10018476;28;20030;-66
2024/03/25 05:30:40;;;;;;;2.00;1.65;;;7.10;99.90;;;;;;10019419;28;20038;-65
2024/03/25 05:35:33;;;;;;;4.10;1.40;;;7.10;99.90;;;;;;10018955;28;20041;-66
2024/03/25 05:40:24;;;;;;;2.67;1.55;;;7.10;99.90;;;;;;10020901;28;20037;-66
2024/03/25 05:45:15;;;;;;;3.10;1.27;;;7.10;99.90;;;;;;10018512;28;20080;-66
2024/03/25 05:50:07;;;;;;;1.92;1.42;;;7.10;99.90;;;;;;10025167;28;20056;-66
2024/03/25 05:54:58;;;;;;;4.53;1.50;;;7.10;99.90;;;;;;10021643;28;20093;-66
2024/03/25 05:59:49;;;;;;;3.03;1.63;;;7.10;99.90;;;;;;10020257;28;20479;-66
2024/03/25 06:04:39;;;;;;;1.83;1.25;;;7.10;99.90;;;;;;10019037;28;20061;-66
2024/03/25 06:09:30;;;;;;;2.95;1.38;;;7.00;99.90;;;;;;10020188;28;20034;-66
2024/03/25 06:14:21;;;;;;;4.53;1.35;;;6.90;99.90;;;;;;10018074;28;20041;-66
2024/03/25 06:19:12;;;;;;;3.15;1.83;;;7.00;99.90;;;;;;10027306;28;20037;-66
2024/03/25 06:24:03;;;;;;;3.78;1.67;;;7.00;99.90;;;;;;10019695;28;20045;-65
2024/03/25 06:28:53;;;;;;;2.08;1.27;;;7.00;99.90;;;;;;10018252;28;20060;-65
2024/03/25 06:38:54;;;;;;;3.95;2.35;;;7.00;99.90;;;;;;10015316;28;20081;-66
2024/03/25 06:43:44;;;;;;;3.70;1.65;;;7.10;99.90;;;;;;10019827;28;20458;-65
2024/03/25 06:48:36;;;;;;;3.40;1.75;;;7.10;99.90;;;;;;10008573;28;20057;-65
2024/03/25 06:53:27;;;;;;;2.55;1.73;;;7.20;99.90;;;;;;10007287;28;20029;-65
2024/03/25 06:58:21;;;;;;;2.28;1.67;;;7.20;99.90;;;;;;9997237;28;20040;-67
2024/03/25 07:03:12;;;;;;;4.05;1.92;;;7.10;99.90;;;;;;9999383;28;20483;-65
2024/03/25 07:08:03;;;;;;;5.15;1.85;;;7.10;99.90;;;;;;10003409;28;20048;-66
2024/03/25 07:12:54;;;;;;;2.17;1.73;;;7.10;99.90;;;;;;10013523;28;20018;-65
2024/03/25 07:17:44;;;;;;;2.72;1.48;;;7.10;99.90;;;;;;10012355;28;20044;-65
2024/03/25 07:22:35;;;;;;;3.55;1.63;;;7.30;99.90;;;;;;10021680;28;20038;-66
2024/03/25 07:27:25;;;;;;;2.38;1.60;;;7.30;99.90;;;;;;10016935;28;20575;-67
2024/03/25 07:32:16;;;;;;;2.85;1.48;;;7.30;99.90;;;;;;10014908;28;20404;-66
2024/03/25 07:37:07;;;;;;;3.03;2.05;;;7.30;99.90;;;;;;10013116;28;20085;-65
2024/03/25 07:41:57;;;;;;;4.25;1.70;;;7.30;99.90;;;;;;10001847;28;20099;-66
2024/03/25 07:46:48;;;;;;;3.88;2.08;;;7.30;99.90;;;;;;10015680;28;20050;-66
2024/03/25 07:51:39;;;;;;;3.25;2.28;;;7.40;99.90;;;;;;10013221;28;20504;-66
2024/03/25 07:56:32;;;;;;;4.18;2.53;;;7.60;99.90;;;;;;10016203;28;20026;-66
2024/03/25 08:01:23;;;;;;;2.50;1.52;;;7.60;99.90;;;;;;10012291;28;20029;-65
2024/03/25 08:06:13;;;;;;;3.70;1.73;;;7.60;99.90;;;;;;10014011;28;20034;-66
2024/03/25 08:11:04;;;;;;;3.97;2.15;;;7.70;99.90;;;;;;10019975;28;20037;-65
2024/03/25 08:15:54;;;;;;;4.80;2.13;;;7.70;99.90;;;;;;10018757;28;20025;-66
2024/03/25 08:20:45;;;;;;;2.72;1.92;;;7.70;99.90;;;;;;10020123;28;20029;-66
2024/03/25 08:25:36;;;;;;;3.70;1.70;;;7.80;99.90;;;;;;10021632;28;20435;-66
2024/03/25 08:30:27;;;;;;;3.72;1.98;;;7.90;99.90;;;;;;10019821;28;20034;-65
2024/03/25 08:35:17;;;;;;;3.40;1.67;;;7.90;99.90;;;;;;10017388;28;20044;-66
2024/03/25 08:40:09;;;;;;;2.97;1.75;;;8.00;99.90;;;;;;10019350;28;20129;-67
2024/03/25 08:44:59;;;;;;;4.82;1.48;;;8.10;99.90;;;;;;10020992;28;20463;-65
2024/03/25 08:49:50;;;;;;;4.65;1.20;;;8.10;99.90;;;;;;10021033;28;20045;-67
2024/03/25 08:54:41;;;;;;;2.38;1.80;;;8.20;99.90;;;;;;10020112;28;20026;-68
2024/03/25 08:59:31;;;;;;;5.82;2.20;;;8.30;99.90;;;;;;10021302;28;20484;-67
2024/03/25 09:04:22;;;;;;;2.35;1.25;;;8.30;99.90;;;;;;10018465;28;20041;-67
2024/03/25 09:14:22;;;;;;;4.63;2.17;;;8.40;99.90;;;;;;10018026;28;20053;-66
2024/03/25 09:19:13;;;;;;;2.92;1.63;;;8.30;99.90;;;;;;10017655;28;20677;-67
2024/03/25 09:24:04;;;;;;;4.90;1.58;;;8.40;99.90;;;;;;10017988;28;20037;-66
2024/03/25 09:28:54;;;;;;;2.63;1.40;;;8.50;99.90;;;;;;10027503;28;20096;-66
2024/03/25 09:33:45;;;;;;;3.22;1.48;;;8.60;99.90;;;;;;10019441;28;20091;-66
2024/03/25 09:38:36;;;;;;;2.42;1.30;;;8.60;99.90;;;;;;10017482;28;20046;-66
2024/03/25 09:43:42;;;;;;;3.15;1.40;;;8.70;99.90;;;;;;10018385;28;20113;-66
2024/03/25 09:48:34;;;;;;;2.95;1.20;;;8.70;99.90;;;;;;10017202;28;20065;-67
2024/03/25 09:53:24;;;;;;;2.83;1.75;;;8.70;99.90;;;;;;10015029;28;20034;-66
2024/03/25 09:58:17;;;;;;;2.05;1.38;;;8.80;99.90;;;;;;10016544;28;20038;-66
2024/03/25 10:03:08;;;;;;;3.40;1.17;;;8.80;99.90;;;;;;10021407;28;20055;-66
2024/03/25 10:07:59;;;;;;;1.98;1.10;;;8.80;99.90;;;;;;10016363;28;20061;-66
2024/03/25 10:12:50;;;;;;;3.42;1.30;;;8.90;99.90;;;;;;10014821;28;20774;-65
2024/03/25 10:17:41;;;;;;;1.85;1.58;;;9.00;99.90;;;;;;10015664;28;20029;-66
2024/03/25 10:22:44;;;;;;;6.57;1.38;;;9.00;99.90;;;;;;10016420;28;20634;-67
2024/03/25 10:27:34;;;;;;;3.38;1.30;;;9.10;99.90;;;;;;10015642;28;20049;-66
2024/03/25 10:32:28;;;;;;;3.70;1.15;;;9.20;99.90;;;;;;10010188;28;20056;-66
2024/03/25 10:37:21;;;;;;;3.35;1.77;;;9.20;99.90;;;;;;10016711;28;20046;-67
2024/03/25 10:42:14;;;;;;;2.35;1.30;;;9.20;99.90;;;;;;10016608;28;20123;-65
2024/03/25 10:47:06;;;;;;;2.97;1.10;;;9.20;99.90;;;;;;10012277;28;20046;-67
2024/03/25 10:51:58;;;;;;;1.23;0.75;;;9.20;99.90;;;;;;10015382;28;20076;-66
2024/03/25 10:56:51;;;;;;;1.88;1.13;;;9.30;99.90;;;;;;10012628;28;20022;-65
2024/03/25 11:01:42;;;;;;;1.30;0.82;;;9.40;99.90;;;;;;10018245;28;20447;-68
2024/03/25 11:06:32;;;;;;;2.10;1.05;;;9.50;99.90;;;;;;10015196;28;20116;-69
2024/03/25 11:11:23;;;;;;;3.35;1.23;;;9.60;99.90;;;;;;10021518;28;20060;-67
2024/03/25 11:16:14;;;;;;;3.40;1.08;;;9.60;99.90;;;;;;10015226;28;20022;-68
2024/03/25 11:21:07;;;;;;;0.95;0.80;;;9.60;99.90;;;;;;10015834;28;20376;-68
2024/03/25 11:25:58;;;;;;;3.42;1.00;;;9.80;99.90;;;;;;10013111;28;20037;-68
2024/03/25 11:30:49;;;;;;;2.67;0.93;;;10.00;99.90;;;;;;10011509;28;20034;-67
2024/03/25 11:35:40;;;;;;;1.80;1.00;;;9.90;99.90;;;;;;9999659;28;20061;-68
2024/03/25 11:40:31;;;;;;;3.92;1.23;;;9.90;99.90;;;;;;10001792;28;20048;-71
2024/03/25 11:45:23;;;;;;;2.03;1.83;;;9.90;99.90;;;;;;10002662;28;20121;-70
2024/03/25 11:50:18;;;;;;;2.08;1.10;;;9.90;99.90;;;;;;10029024;28;20038;-69
2024/03/25 11:55:09;;;;;;;1.50;1.40;;;10.00;99.90;;;;;;10023941;28;20029;-67
2024/03/25 12:00:00;;;;;;;1.23;1.00;;;10.20;99.90;;;;;;10019091;28;20033;-69
2024/03/25 12:04:51;;;;;;;1.50;1.08;;;10.30;99.90;;;;;;10014968;28;20030;-68
2024/03/25 12:14:52;;;;;;;1.13;1.00;;;10.40;99.90;;;;;;10031451;28;20054;-68
2024/03/25 12:19:43;;;;;;;2.42;1.02;;;10.50;99.90;;;;;;10012409;28;20487;-66
2024/03/25 12:24:34;;;;;;;1.20;0.88;;;10.60;99.90;;;;;;10018019;28;20041;-67
2024/03/25 12:29:25;;;;;;;1.45;0.88;;;10.70;99.90;;;;;;10020017;28;20472;-67
2024/03/25 12:34:16;;;;;;;5.30;1.20;;;10.80;99.90;;;;;;10022584;28;20037;-67
2024/03/25 12:39:15;;;;;;;2.15;1.10;;;10.80;99.90;;;;;;10009319;28;20078;-66
2024/03/25 12:44:06;;;;;;;3.10;1.00;;;10.90;99.90;;;;;;10020190;28;20156;-67
2024/03/25 12:48:57;;;;;;;1.35;0.90;;;11.10;99.90;;;;;;10021724;28;20133;-67
2024/03/25 12:53:48;;;;;;;1.45;0.85;;;11.30;99.90;;;;;;10024430;28;20026;-67
2024/03/25 12:58:39;;;;;;;3.88;1.20;;;11.50;99.90;;;;;;10019843;28;20380;-68
2024/03/25 13:03:29;;;;;;;2.00;1.15;;;11.60;99.90;;;;;;10018031;28;20030;-67
2024/03/25 13:08:20;;;;;;;3.90;0.90;;;11.60;99.90;;;;;;10017232;28;20107;-68
2024/03/25 13:13:11;;;;;;;2.40;1.05;;;11.70;99.90;;;;;;10018171;28;20041;-69
2024/03/25 13:18:02;;;;;;;2.58;1.15;;;11.90;99.90;;;;;;10018799;28;20076;-67
2024/03/25 13:22:57;;;;;;;1.65;0.80;;;12.20;99.90;;;;;;10018843;28;20041;-69
2024/03/25 13:27:47;;;;;;;1.83;1.17;;;12.40;99.90;;;;;;10022325;28;20046;-68
2024/03/25 13:32:38;;;;;;;2.83;1.10;;;12.50;99.90;;;;;;10019994;28;20052;-69
2024/03/25 13:37:28;;;;;;;1.70;0.82;;;12.60;99.90;;;;;;10016907;28;20492;-71
2024/03/25 13:42:19;;;;;;;1.40;0.90;;;12.90;99.90;;;;;;10018194;28;20033;-68
2024/03/25 13:47:10;;;;;;;1.73;1.63;;;13.00;99.90;;;;;;10015964;28;20046;-68
2024/03/25 13:52:03;;;;;;;1.45;0.90;;;13.40;99.90;;;;;;10018389;28;20053;-68
2024/03/25 13:56:54;;;;;;;1.00;0.77;;;13.50;99.90;;;;;;10015022;28;20037;-69
2024/03/25 14:01:45;;;;;;;1.45;0.90;;;13.70;99.90;;;;;;10015097;28;20038;-67
2024/03/25 14:06:36;;;;;;;2.40;0.98;;;14.00;99.90;;;;;;10006408;28;20100;-67
2024/03/25 14:11:26;;;;;;;0.80;0.63;;;14.20;99.90;;;;;;10004636;28;20286;-67
2024/03/25 14:16:17;;;;;;;2.28;0.93;;;14.50;99.90;;;;;;10009335;28;20445;-66
2024/03/25 14:21:08;;;;;;;3.08;0.98;;;14.90;99.90;;;;;;10018903;28;20082;-67
2024/03/25 14:25:58;;;;;;;0.60;0.50;;;15.10;99.90;;;;;;10015849;28;20435;-67
2024/03/25 14:30:49;;;;;;;1.17;0.75;;;15.30;99.90;;;;;;10018777;28;20045;-67
2024/03/25 14:35:41;;;;;;;0.90;0.70;;;15.50;99.90;;;;;;10015902;28;20559;-67
2024/03/25 14:40:31;;;;;;;2.35;0.90;;;15.80;99.90;;;;;;10016219;28;20045;-68
2024/03/25 14:45:22;;;;;;;1.50;0.80;;;16.00;99.90;;;;;;10018917;28;20476;-66
2024/03/25 14:50:13;;;;;;;1.30;0.80;;;16.30;99.90;;;;;;10015938;28;20582;-67
2024/03/25 14:55:04;;;;;;;0.63;0.57;;;16.60;99.90;;;;;;10015631;28;20018;-69
2024/03/25 14:59:54;;;;;;;1.08;0.73;;;17.00;99.90;;;;;;10015521;28;20049;-66
2024/03/25 15:04:45;;;;;;;4.00;1.20;;;17.20;99.90;;;;;;10016834;28;20037;-67
2024/03/25 15:09:36;;;;;;;4.03;0.80;;;17.30;99.90;;;;;;10016732;28;20038;-68
2024/03/25 15:14:30;;;;;;;1.23;0.75;;;17.70;99.90;;;;;;10013843;28;20034;-65
2024/03/25 15:19:21;;;;;;;1.13;0.63;;;17.90;99.90;;;;;;10010941;28;20034;-65
2024/03/25 15:24:11;;;;;;;3.15;0.77;;;18.10;99.90;;;;;;10013370;28;20037;-66
2024/03/25 15:29:02;;;;;;;1.20;1.08;;;18.30;99.90;;;;;;10017510;28;20408;-66
2024/03/25 15:33:53;;;;;;;3.15;0.90;;;18.30;99.90;;;;;;10018055;28;20455;-66
2024/03/25 15:38:44;;;;;;;2.10;1.25;;;18.50;99.90;;;;;;10022085;28;20056;-67
2024/03/25 15:43:35;;;;;;;2.00;0.80;;;18.60;99.90;;;;;;10028345;28;20013;-67
2024/03/25 15:48:26;;;;;;;2.38;0.75;;;18.70;99.90;;;;;;10023379;28;20049;-67
2024/03/25 15:53:17;;;;;;;1.48;0.95;;;18.70;99.90;;;;;;10023446;28;20018;-68
2024/03/25 15:58:08;;;;;;;1.30;0.63;;;18.80;99.90;;;;;;10020990;28;20045;-67
2024/03/25 16:03:00;;;;;;;1.83;0.73;;;18.90;99.90;;;;;;10022108;28;20365;-67
2024/03/25 16:07:51;;;;;;;8.18;3.67;;;19.00;99.90;;;;;;10018971;28;20038;-67
2024/03/25 16:12:42;;;;;;;38.08;21.35;;;19.00;99.90;;;;;;10016713;28;20385;-67
2024/03/25 16:17:32;;;;;;;7.60;4.00;;;19.20;99.90;;;;;;10019797;28;20033;-68
2024/03/25 16:22:24;;;;;;;2.08;1.00;;;19.30;99.80;;;;;;10009837;28;20029;-66
2024/03/25 16:27:14;;;;;;;1.40;1.00;;;19.40;99.60;;;;;;10019930;28;20061;-66
2024/03/25 16:32:05;;;;;;;1.55;0.80;;;19.60;99.40;;;;;;10014013;28;20034;-66
2024/03/25 16:36:56;;;;;;;1.80;1.10;;;19.40;99.30;;;;;;10025802;28;20037;-67
2024/03/25 16:41:46;;;;;;;2.72;1.40;;;19.10;99.20;;;;;;10024166;28;20038;-66
2024/03/25 16:46:37;;;;;;;2.83;1.20;;;19.20;99.10;;;;;;10015966;28;20042;-67
2024/03/25 16:51:28;;;;;;;2.40;1.33;;;19.20;98.90;;;;;;10015304;28;20036;-66
2024/03/25 16:56:18;;;;;;;2.63;1.10;;;19.00;98.80;;;;;;10012406;28;20080;-67
2024/03/25 17:01:09;;;;;;;1.25;0.60;;;19.00;98.70;;;;;;10012974;28;20037;-67
2024/03/25 17:06:00;;;;;;;1.73;0.93;;;18.90;98.50;;;;;;10013006;28;20029;-66
2024/03/25 17:10:50;;;;;;;2.63;1.25;;;18.60;98.50;;;;;;10017739;28;20056;-67
2024/03/25 17:15:41;;;;;;;3.50;1.75;;;18.00;98.60;;;;;;10013459;28;20030;-66
2024/03/25 17:20:32;;;;;;;1.08;0.80;;;17.40;98.70;;;;;;10009759;28;20045;-67
2024/03/25 17:25:22;;;;;;;2.38;1.60;;;17.00;98.70;;;;;;10014131;28;20022;-67
2024/03/25 17:30:14;;;;;;;3.47;1.52;;;16.80;98.60;;;;;;10018554;28;20519;-67
2024/03/25 17:35:04;;;;;;;3.67;0.95;;;16.60;98.60;;;;;;10023214;28;20030;-67
2024/03/25 17:39:55;;;;;;;2.00;0.90;;;16.50;98.60;;;;;;10023370;28;20061;-69
2024/03/25 17:44:49;;;;;;;1.50;1.40;;;16.50;98.50;;;;;;10022169;28;20161;-66
2024/03/25 17:49:40;;;;;;;1.10;0.75;;;16.40;98.40;;;;;;10020216;28;20661;-68
2024/03/25 17:54:30;;;;;;;2.83;0.98;;;16.30;98.40;;;;;;10015823;28;20060;-68
2024/03/25 17:59:21;;;;;;;2.60;0.93;;;16.30;98.40;;;;;;10016397;28;20034;-67
2024/03/25 18:04:13;;;;;;;4.60;1.63;;;16.20;98.40;;;;;;10016399;28;20472;-68
2024/03/25 18:09:04;;;;;;;2.83;1.38;;;16.20;98.30;;;;;;10014253;28;20048;-69
2024/03/25 18:13:55;;;;;;;1.42;0.98;;;16.20;98.30;;;;;;10014550;28;20030;-68
2024/03/25 18:18:45;;;;;;;3.70;1.42;;;16.00;98.30;;;;;;10012957;28;20041;-67
2024/03/25 18:23:36;;;;;;;3.63;1.92;;;16.00;98.30;;;;;;10015634;28;20037;-68
2024/03/25 18:28:26;;;;;;;4.32;1.60;;;15.90;98.20;;;;;;10016545;28;20064;-69
2024/03/25 18:33:17;;;;;;;2.10;1.33;;;15.80;98.30;;;;;;10013368;28;20511;-67
2024/03/25 18:38:08;;;;;;;2.45;1.27;;;15.80;98.30;;;;;;10018637;28;20500;-67
2024/03/25 18:42:59;;;;;;;4.88;1.48;;;15.70;98.30;;;;;;10016290;28;20026;-69
2024/03/25 18:47:50;;;;;;;3.65;2.03;;;15.60;98.20;;;;;;10019004;28;20053;-68
2024/03/25 18:52:42;;;;;;;10.48;5.05;;;15.60;98.30;;;;;;10008494;28;20322;-70
2024/03/25 18:57:32;;;;;;;22.55;11.80;;;15.50;98.20;;;;;;10016594;28;20048;-68
2024/03/25 19:02:23;;;;;;;5.05;2.45;;;15.40;98.20;;;;;;10015735;28;20029;-67
2024/03/25 19:07:14;;;;;;;3.38;1.55;;;15.30;98.30;;;;;;10028948;28;20034;-67
2024/03/25 19:12:05;;;;;;;5.10;1.98;;;15.30;98.30;;;;;;10016337;28;20403;-69
2024/03/25 19:16:55;;;;;;;6.40;2.00;;;15.40;98.20;;;;;;10024456;28;20434;-68
2024/03/25 19:21:46;;;;;;;2.95;1.73;;;15.20;98.20;;;;;;10015529;28;20032;-67
2024/03/25 19:26:36;;;;;;;2.53;1.60;;;15.20;98.30;;;;;;10033203;28;20042;-68
2024/03/25 19:31:27;;;;;;;3.50;1.73;;;15.10;98.30;;;;;;10002477;28;20046;-67
2024/03/25 19:36:18;;;;;;;2.28;1.60;;;15.10;98.30;;;;;;10009208;28;20120;-66
2024/03/25 19:41:09;;;;;;;4.75;1.60;;;15.00;98.30;;;;;;9992254;28;20046;-68
2024/03/25 19:45:59;;;;;;;3.15;1.75;;;15.10;98.20;;;;;;10022268;28;20027;-70
2024/03/25 19:50:50;;;;;;;4.50;2.13;;;15.10;98.20;;;;;;10010273;28;20532;-67
2024/03/25 19:55:41;;;;;;;4.25;1.63;;;15.00;98.20;;;;;;10012690;28;20038;-68
2024/03/25 20:00:32;;;;;;;3.50;1.42;;;15.10;98.20;;;;;;10005969;28;20029;-68
2024/03/25 20:05:23;;;;;;;5.25;2.00;;;14.90;98.20;;;;;;9998665;28;20029;-70
2024/03/25 20:10:13;;;;;;;5.00;2.30;;;14.90;98.20;;;;;;10005218;28;20403;-68
2024/03/25 20:15:05;;;;;;;7.57;2.25;;;14.90;98.10;;;;;;10004768;28;20029;-69
2024/03/25 20:19:55;;;;;;;2.72;1.92;;;14.80;98.10;;;;;;10017747;28;20042;-66
2024/03/25 20:24:46;;;;;;;4.03;1.90;;;14.70;98.20;;;;;;10022091;28;20094;-67
2024/03/25 20:29:38;;;;;;;5.63;1.60;;;14.70;98.20;;;;;;10016649;28;20042;-69
2024/03/25 20:34:29;;;;;;;3.50;1.45;;;14.70;98.10;;;;;;10016345;28;20280;-70
2024/03/25 20:39:20;;;;;;;3.67;1.30;;;14.60;98.10;;;;;;10028545;28;20148;-67
2024/03/25 20:44:10;;;;;;;2.95;1.58;;;14.60;98.00;;;;;;10028226;28;20882;-68
2024/03/25 20:49:01;;;;;;;4.25;1.58;;;14.60;98.20;;;;;;10030636;28;20045;-69
2024/03/25 20:53:51;;;;;;;4.15;1.75;;;14.50;97.90;;;;;;10026772;28;20030;-67
2024/03/25 20:58:42;;;;;;;5.60;1.77;;;14.60;97.90;;;;;;10017978;28;20032;-67
2024/03/25 21:03:32;;;;;;;5.30;1.80;;;14.50;97.80;;;;;;10020342;28;20025;-67
2024/03/25 21:08:23;;;;;;;2.63;1.33;;;14.50;97.80;;;;;;10020266;28;20052;-69
2024/03/25 21:13:14;;;;;;;2.83;1.40;;;14.40;97.80;;;;;;10020150;28;20034;-67
2024/03/25 21:18:05;;;;;;;4.43;1.50;;;14.40;97.80;;;;;;10020627;28;20034;-68
2024/03/25 21:22:56;;;;;;;4.45;1.67;;;14.40;97.70;;;;;;10017950;28;20133;-68
2024/03/25 21:27:47;;;;;;;1.65;1.25;;;14.30;97.70;;;;;;10019166;28;20582;-69
2024/03/25 21:32:38;;;;;;;3.67;1.73;;;14.10;97.80;;;;;;10016521;28;20099;-69
2024/03/25 21:37:28;;;;;;;2.95;1.95;;;14.00;97.90;;;;;;10018356;28;20073;-68
2024/03/25 21:42:19;;;;;;;2.80;1.52;;;14.00;98.00;;;;;;10024513;28;20046;-67
2024/03/25 21:47:09;;;;;;;3.67;1.70;;;14.00;97.90;;;;;;10016211;28;20041;-66
2024/03/25 21:52:00;;;;;;;3.38;2.03;;;14.00;98.00;;;;;;10033006;28;20048;-68
2024/03/25 21:56:51;;;;;;;3.90;2.33;;;14.00;97.90;;;;;;10016023;28;20026;-68
2024/03/25 22:01:43;;;;;;;3.53;2.22;;;14.00;97.90;;;;;;10018962;28;20836;-70
2024/03/25 22:06:34;;;;;;;4.57;1.98;;;14.00;98.00;;;;;;10017875;28;20117;-68
2024/03/25 22:11:24;;;;;;;4.70;1.80;;;13.80;98.10;;;;;;10011173;28;20033;-68
2024/03/25 22:16:15;;;;;;;2.35;1.67;;;13.70;98.20;;;;;;10008618;28;20054;-67
2024/03/25 22:21:06;;;;;;;14.85;7.90;;;13.60;98.30;;;;;;10003518;28;20030;-70
2024/03/25 22:25:59;;;;;;;5.25;3.53;;;13.60;98.40;;;;;;10007765;28;20094;-66
2024/03/25 22:31:01;;;;;;;4.13;1.90;;;13.60;98.30;;;;;;10005924;28;20137;-66
2024/03/25 22:35:56;;;;;;;3.45;2.15;;;13.50;98.40;;;;;;10008194;28;20143;-67
2024/03/25 22:40:46;;;;;;;3.77;2.37;;;13.50;98.50;;;;;;10017732;28;20073;-66
2024/03/25 22:45:37;;;;;;;4.10;2.47;;;13.30;98.60;;;;;;10009922;28;20061;-66
2024/03/25 22:50:28;;;;;;;5.50;2.60;;;13.20;98.70;;;;;;10005534;28;20109;-66
2024/03/25 22:55:18;;;;;;;3.33;2.50;;;13.10;98.80;;;;;;10002022;28;20399;-66
2024/03/25 23:00:14;;;;;;;3.67;2.10;;;13.10;98.90;;;;;;10010509;28;20451;-67
2024/03/25 23:05:05;;;;;;;6.78;2.10;;;13.00;99.00;;;;;;10016855;28;20041;-67
2024/03/25 23:09:55;;;;;;;4.15;1.88;;;13.00;99.00;;;;;;10008550;28;20069;-67
2024/03/25 23:14:46;;;;;;;3.88;1.85;;;13.00;99.10;;;;;;10016438;28;20033;-66
2024/03/25 23:19:36;;;;;;;4.00;2.13;;;13.00;99.10;;;;;;10016626;28;20125;-66
2024/03/25 23:24:27;;;;;;;1.52;1.42;;;13.00;99.20;;;;;;10014047;28;20032;-66
2024/03/25 23:29:18;;;;;;;2.35;1.65;;;13.00;99.20;;;;;;10019442;28;20030;-68
2024/03/25 23:34:09;;;;;;;3.67;2.33;;;13.00;99.30;;;;;;10017162;28;20480;-69
2024/03/25 23:39:01;;;;;;;2.63;2.10;;;13.00;99.30;;;;;;10016279;28;20054;-66
2024/03/25 23:43:52;;;;;;;3.15;2.53;;;12.80;99.40;;;;;;10015786;28;20495;-66
2024/03/25 23:48:42;;;;;;;5.20;2.40;;;12.70;99.50;;;;;;10016610;28;20033;-69
2024/03/25 23:53:33;;;;;;;3.70;2.13;;;12.60;99.60;;;;;;10019171;28;20021;-67
2024/03/25 23:58:24;;;;;;;2.78;1.98;;;12.60;99.70;;;;;;10022883;28;20034;-67
